Port Graham, Alaska
Current Conditions -  °F | °C
As of 4:53 AM on Thursday 30 Oct 2014 (Local Time) from PAHO Reporting Station
Overcast Overcast  
Wind Chill: 32°   Ceiling: 2800
Heat Index: 38°   Visibility: 10mi
Dew Point: 26°   Wind: 8mph
Humidity: 62%   Direction: 240°WSW
Pressure: 29.64"   Gusts: NA
Location:  59.7153°N, 150.773°W
Report Text: PAHO 301253Z AUTO 24007KT 10SM OVC028 03/M03 A2964 RMK AO2 SLP035 T00331033 TSNO
Loading
Personal Weather Stations






























Interactive Weather Map
Tropical Storm Tracking
New forecast layout! Learn more

10-Day Weather Forecast

Advertisements
Track Severe Weather on mobile